Time;durP1;ratioP1;P1;durP2;ratioP2;P2;SDS_P1;SDS_P2;PMS_P1;PMS_P2;Temp;Humidity;BMP_temperature;BMP_pressure;BME280_temperature;BME280_humidity;BME280_pressure;Samples;Min_cycle;Max_cycle;Signal;HPM_P1;HPM_P2
2023/09/20 00:09:43;;;;;;;2.72;2.53;;;;;;;26.80;51.33;101642.88;21001106;28;20049;-57
2023/09/20 00:19:45;;;;;;;3.17;2.75;;;;;;;26.79;51.05;101645.97;21069483;28;20040;-59
2023/09/20 00:29:46;;;;;;;2.92;2.63;;;;;;;26.79;50.85;101669.25;21077874;28;20048;-57
2023/09/20 00:39:48;;;;;;;2.97;2.78;;;;;;;26.79;50.99;101676.84;21078021;28;20047;-57
2023/09/20 00:49:49;;;;;;;3.05;2.78;;;;;;;26.81;51.11;101683.84;21067100;28;20089;-59
2023/09/20 00:59:51;;;;;;;3.17;2.88;;;;;;;26.79;51.12;101686.09;21071307;28;20036;-59
2023/09/20 01:09:53;;;;;;;2.50;2.30;;;;;;;26.60;51.14;101648.78;21072295;28;20047;-59
2023/09/20 01:19:54;;;;;;;3.88;2.92;;;;;;;26.70;51.20;101665.47;21072000;28;20036;-59
2023/09/20 01:29:58;;;;;;;2.40;2.20;;;;;;;26.83;51.10;101698.41;21068355;28;20074;-59
2023/09/20 01:39:59;;;;;;;2.50;2.22;;;;;;;26.82;50.89;101713.59;21077391;28;20040;-59
2023/09/20 01:50:01;;;;;;;3.08;2.40;;;;;;;26.83;50.82;101714.41;21066963;28;20048;-59
2023/09/20 02:00:21;;;;;;;3.05;2.70;;;;;;;26.84;51.04;101728.16;21050188;28;20040;-58
2023/09/20 02:10:23;;;;;;;4.07;2.60;;;;;;;26.82;50.85;101732.41;21071747;28;20051;-58
2023/09/20 02:20:30;;;;;;;3.78;2.10;;;;;;;26.81;50.90;101734.38;21093539;28;20040;-58
2023/09/20 02:30:37;;;;;;;3.42;2.85;;;;;;;26.85;50.74;101752.31;21102050;28;20047;-58
2023/09/20 02:40:38;;;;;;;;;;;;;;;26.83;51.09;101774.22;21101907;28;20062;-58
2023/09/20 02:50:41;;;;;;;2.30;2.10;;;;;;;26.90;50.63;101789.88;21057211;28;19916;-58
2023/09/20 03:00:50;;;;;;;2.83;2.42;;;;;;;26.88;50.74;101797.75;21100127;28;20040;-60
2023/09/20 03:10:53;;;;;;;2.88;2.58;;;;;;;26.86;50.79;101810.13;21101642;28;20048;-59
2023/09/20 03:20:54;;;;;;;3.53;2.70;;;;;;;26.85;50.99;101825.31;21101476;28;20062;-59
2023/09/20 03:30:56;;;;;;;4.78;2.67;;;;;;;26.83;51.29;101824.78;21092245;28;20043;-59
2023/09/20 03:40:57;;;;;;;3.60;2.47;;;;;;;26.85;51.40;101830.09;21084280;28;20036;-57
2023/09/20 03:50:59;;;;;;;3.67;2.97;;;;;;;26.83;51.55;101833.19;21071785;28;20101;-59
2023/09/20 04:01:02;;;;;;;3.63;2.70;;;;;;;26.84;51.68;101820.81;21024721;28;20040;-59
2023/09/20 04:11:05;;;;;;;2.92;2.60;;;;;;;26.87;51.74;101839.06;21001448;28;20552;-60
2023/09/20 04:21:07;;;;;;;2.70;2.50;;;;;;;26.69;52.13;101806.16;21058979;28;20491;-59
2023/09/20 04:31:09;;;;;;;3.65;2.72;;;;;;;26.88;52.02;101846.34;21083272;28;20548;-59
2023/09/20 04:41:13;;;;;;;2.80;2.40;;;;;;;26.88;52.07;101840.72;21044273;28;20094;-57
2023/09/20 04:51:15;;;;;;;2.88;2.63;;;;;;;26.88;52.07;101834.28;21002550;28;20108;-59
2023/09/20 05:01:17;;;;;;;2.78;2.58;;;;;;;26.88;52.02;101837.06;21080632;28;20044;-60
2023/09/20 05:11:18;;;;;;;4.30;3.00;;;;;;;26.88;52.28;101837.06;21079857;28;20093;-60
2023/09/20 05:21:23;;;;;;;3.03;2.72;;;;;;;26.89;52.15;101835.94;21065719;28;20062;-59
2023/09/20 05:31:26;;;;;;;3.70;2.97;;;;;;;26.89;52.22;101830.31;21043997;28;20044;-60
2023/09/20 05:41:29;;;;;;;4.28;2.70;;;;;;;26.89;52.03;101844.34;21076609;28;20392;-59
2023/09/20 05:51:30;;;;;;;3.03;2.72;;;;;;;26.88;51.94;101840.72;21048330;28;20070;-60
2023/09/20 06:01:32;;;;;;;4.50;3.15;;;;;;;26.84;51.97;101837.66;21065364;28;20032;-59
2023/09/20 06:11:33;;;;;;;3.63;3.00;;;;;;;26.86;51.76;101843.84;21066867;28;20449;-59
2023/09/20 06:21:38;;;;;;;3.30;2.92;;;;;;;26.89;51.81;101864.03;21069855;28;20036;-61
2023/09/20 06:31:40;;;;;;;3.10;2.80;;;;;;;26.88;51.66;101879.22;21061539;28;20399;-59
2023/09/20 06:41:42;;;;;;;3.15;2.63;;;;;;;26.85;51.62;101864.63;21074884;28;20051;-59
2023/09/20 06:51:43;;;;;;;3.05;2.75;;;;;;;26.83;51.62;101866.91;21057602;28;20142;-59
2023/09/20 07:01:45;;;;;;;3.22;2.65;;;;;;;26.84;51.88;101873.34;21076805;28;20044;-59
2023/09/20 07:11:47;;;;;;;3.38;2.70;;;;;;;26.81;51.68;101872.00;21063667;28;20024;-59
2023/09/20 07:21:48;;;;;;;2.95;2.53;;;;;;;26.86;51.62;101877.53;21006038;28;20045;-60
2023/09/20 07:31:53;;;;;;;2.97;2.67;;;;;;;26.86;51.51;101888.78;21031563;28;20040;-59
2023/09/20 07:41:58;;;;;;;3.13;2.78;;;;;;;26.83;51.77;101894.13;21087356;28;20372;-59
2023/09/20 07:52:00;;;;;;;3.30;2.75;;;;;;;26.85;51.54;101906.75;21072103;28;20101;-59
2023/09/20 08:02:04;;;;;;;3.03;2.65;;;;;;;26.83;51.47;101906.22;21086720;28;20040;-59
2023/09/20 08:12:09;;;;;;;3.28;2.55;;;;;;;26.73;51.37;101895.09;21065572;28;20043;-59
2023/09/20 08:22:15;;;;;;;2.80;2.47;;;;;;;26.83;51.23;101911.81;21084079;28;20064;-59
2023/09/20 09:03:41;;;;;;;2.58;2.38;;;;;;;26.81;51.15;101922.53;21081078;28;20107;-60
2023/09/20 09:13:42;;;;;;;2.53;2.33;;;;;;;26.81;50.98;101930.13;21072932;28;20048;-59
2023/09/20 09:23:46;;;;;;;3.15;2.65;;;;;;;26.80;51.06;101928.44;21075399;28;20044;-59
2023/09/20 09:33:48;;;;;;;2.90;2.33;;;;;;;26.78;51.04;101937.16;21060663;28;20568;-59
2023/09/20 09:43:58;;;;;;;2.70;2.50;;;;;;;26.76;51.00;101945.06;21078063;28;20040;-60
2023/09/20 09:54:02;;;;;;;2.13;1.90;;;;;;;26.78;50.85;101948.41;21042371;28;20062;-60
2023/09/20 10:04:08;;;;;;;2.88;2.42;;;;;;;26.65;51.13;101931.41;21065146;28;20057;-59
2023/09/20 10:14:10;;;;;;;2.63;2.42;;;;;;;26.66;50.95;101933.91;21069330;28;20047;-59
2023/09/20 10:24:17;;;;;;;2.38;2.17;;;;;;;26.76;50.54;101961.06;21063801;28;20557;-58
2023/09/20 10:34:21;;;;;;;2.50;2.13;;;;;;;26.73;50.92;101968.09;21065782;28;20379;-59
2023/09/20 10:44:40;;;;;;;2.55;2.13;;;;;;;26.62;50.68;101977.78;21069093;28;20044;-59
2023/09/20 10:54:45;;;;;;;2.15;1.95;;;;;;;26.72;50.73;102000.13;21064573;28;20051;-58
2023/09/20 11:04:48;;;;;;;3.10;2.20;;;;;;;26.72;50.76;102011.38;21078099;28;20074;-58
2023/09/20 11:14:54;;;;;;;2.15;1.95;;;;;;;26.70;50.49;102010.81;21083303;28;20052;-58
2023/09/20 11:24:55;;;;;;;3.33;2.53;;;;;;;26.70;50.55;102012.78;21081237;28;20559;-58
2023/09/20 11:34:57;;;;;;;2.30;2.03;;;;;;;26.69;50.43;102011.09;21084651;28;21684;-58
2023/09/20 11:45:03;;;;;;;2.30;2.10;;;;;;;26.68;50.56;102027.13;21072098;28;20035;-58
2023/09/20 11:55:11;;;;;;;2.30;2.10;;;;;;;26.66;50.52;102023.75;21084787;28;20040;-59
2023/09/20 12:05:13;;;;;;;2.38;2.17;;;;;;;26.61;50.59;102015.38;21078520;28;20028;-59
2023/09/20 12:15:16;;;;;;;3.83;2.28;;;;;;;26.68;50.55;102031.91;21084373;28;20059;-59
2023/09/20 12:25:19;;;;;;;2.40;2.20;;;;;;;26.67;50.49;102044.28;21076712;28;20025;-59
2023/09/20 12:35:20;;;;;;;2.50;2.10;;;;;;;26.65;50.47;102047.34;21061298;28;20121;-60
2023/09/20 12:45:22;;;;;;;2.28;1.92;;;;;;;26.66;50.58;102056.59;21072716;28;20040;-57
2023/09/20 12:55:27;;;;;;;4.43;2.30;;;;;;;26.55;50.60;102033.41;21058965;28;20063;-58
2023/09/20 13:05:29;;;;;;;2.25;2.05;;;;;;;26.66;50.37;102056.59;21066887;28;20505;-59
2023/09/20 13:15:30;;;;;;;6.10;2.42;;;;;;;26.65;50.50;102067.00;21079399;28;20446;-58
2023/09/20 13:25:32;;;;;;;4.03;2.25;;;;;;;26.61;50.26;102075.16;21055846;28;20028;-59
2023/09/20 13:35:34;;;;;;;2.95;2.50;;;;;;;26.64;50.42;102101.84;21064657;28;20073;-57
2023/09/20 13:45:41;;;;;;;3.85;2.40;;;;;;;26.65;50.14;102106.31;21068527;28;20113;-57
2023/09/20 13:55:43;;;;;;;2.67;2.47;;;;;;;26.65;50.01;102111.09;21049133;28;20356;-58
2023/09/20 14:05:44;;;;;;;5.40;2.40;;;;;;;26.65;49.94;102111.94;21076363;28;20300;-59
2023/09/20 14:15:49;;;;;;;2.88;2.20;;;;;;;26.64;49.68;102127.09;21033930;28;20044;-58
2023/09/20 14:25:51;;;;;;;5.60;2.92;;;;;;;26.64;49.72;102121.47;21075182;28;20483;-58
2023/09/20 14:35:57;;;;;;;5.55;3.17;;;;;;;26.64;49.67;102104.63;21037018;28;20048;-58
2023/09/20 14:45:59;;;;;;;3.55;2.50;;;;;;;26.52;49.53;102090.13;21052924;28;20033;-58
2023/09/20 14:56:00;;;;;;;3.25;2.40;;;;;;;26.66;49.36;102113.59;21039745;28;20048;-58
2023/09/20 15:06:01;;;;;;;3.42;2.60;;;;;;;26.67;49.37;102114.47;21025344;28;20044;-58
2023/09/20 15:16:03;;;;;;;3.83;2.67;;;;;;;26.68;49.35;102111.34;21042311;28;20187;-58
2023/09/20 15:26:11;;;;;;;3.80;2.38;;;;;;;26.69;48.92;102104.59;21077468;28;20452;-58
2023/09/20 15:36:13;;;;;;;3.88;2.75;;;;;;;26.70;48.63;102103.47;21087661;28;20070;-58
2023/09/20 15:46:17;;;;;;;3.67;2.60;;;;;;;26.68;48.74;102102.94;21085025;28;20048;-58
2023/09/20 15:56:19;;;;;;;2.83;2.40;;;;;;;26.69;48.05;102101.78;21086065;28;20082;-58
2023/09/20 16:06:21;;;;;;;3.97;2.47;;;;;;;26.72;48.08;102089.97;21085327;28;20495;-58
2023/09/20 16:16:22;;;;;;;3.50;2.58;;;;;;;26.73;48.06;102074.81;21085170;28;20033;-58
2023/09/20 16:26:29;;;;;;;3.40;1.90;;;;;;;26.73;47.74;102066.38;21084071;28;20070;-60
2023/09/20 16:36:33;;;;;;;3.75;2.60;;;;;;;26.75;47.77;102064.09;21082693;28;20039;-59
2023/09/20 16:46:35;;;;;;;3.47;2.75;;;;;;;26.75;47.80;102055.69;21081707;28;20040;-60
2023/09/20 16:56:37;;;;;;;3.15;2.38;;;;;;;26.78;47.43;102043.88;21081881;28;20044;-59
2023/09/20 17:06:38;;;;;;;3.63;2.42;;;;;;;26.79;47.45;102027.84;21080542;28;20074;-59
2023/09/20 17:16:40;;;;;;;3.03;2.40;;;;;;;26.83;47.35;102040.19;21079110;28;20089;-58
2023/09/20 17:26:41;;;;;;;2.75;2.50;;;;;;;26.81;47.34;102017.19;21079328;28;20573;-60
2023/09/20 17:36:44;;;;;;;3.13;2.42;;;;;;;26.68;47.08;101999.03;21078202;28;20036;-59
2023/09/20 17:46:46;;;;;;;3.55;2.45;;;;;;;26.85;46.86;102005.06;21076615;28;20458;-59
2023/09/20 17:56:48;;;;;;;2.40;1.98;;;;;;;26.80;47.13;101991.06;21076620;28;20044;-59
2023/09/20 18:06:49;;;;;;;3.05;2.55;;;;;;;26.84;46.66;101994.94;21076798;28;20399;-59
2023/09/20 18:16:51;;;;;;;2.35;2.13;;;;;;;26.85;46.52;101976.97;21076271;28;20032;-59
2023/09/20 18:26:57;;;;;;;2.55;2.08;;;;;;;26.84;46.51;101955.63;21075696;28;20379;-58
2023/09/20 18:37:03;;;;;;;3.00;2.53;;;;;;;26.85;46.56;101960.13;21075979;28;20089;-60
2023/09/20 18:47:07;;;;;;;2.77;2.27;;;;;;;26.89;46.19;101956.69;21073598;28;20055;-58
2023/09/20 18:57:10;;;;;;;3.20;2.40;;;;;;;26.89;46.38;101951.09;21072979;28;20048;-59
2023/09/20 19:07:11;;;;;;;2.60;2.40;;;;;;;26.85;45.77;101948.88;21089593;28;20390;-57
2023/09/20 19:17:15;;;;;;;2.85;2.42;;;;;;;26.88;45.71;101946.59;21089295;28;20431;-56
2023/09/20 19:27:17;;;;;;;4.07;2.50;;;;;;;26.88;45.67;101936.22;21088901;28;20188;-57
2023/09/20 19:37:21;;;;;;;2.67;2.47;;;;;;;26.89;45.71;101921.03;21084094;28;20040;-58
2023/09/20 19:47:23;;;;;;;3.25;2.78;;;;;;;26.84;45.44;101912.66;21081302;28;20452;-58
2023/09/20 19:57:24;;;;;;;3.08;2.40;;;;;;;26.86;45.07;101905.63;21066952;28;20040;-59
2023/09/20 20:07:26;;;;;;;5.57;2.70;;;;;;;26.95;45.43;101890.94;21081548;28;20045;-61
2023/09/20 20:17:27;;;;;;;3.97;2.97;;;;;;;27.00;45.47;101894.50;21074590;28;20056;-59
2023/09/20 20:27:31;;;;;;;5.28;2.45;;;;;;;27.03;45.47;101888.28;21071558;28;20044;-60
2023/09/20 20:37:33;;;;;;;3.17;2.55;;;;;;;27.06;45.54;101886.84;21073609;28;20048;-60
2023/09/20 20:47:34;;;;;;;3.15;2.85;;;;;;;27.06;45.94;101875.59;21039905;28;20048;-61
2023/09/20 20:57:36;;;;;;;3.45;2.75;;;;;;;27.05;45.96;101862.69;21060430;28;20070;-61
2023/09/20 21:07:37;;;;;;;3.22;2.92;;;;;;;27.06;45.97;101873.63;21035843;28;20093;-62
2023/09/20 21:17:38;;;;;;;4.57;2.80;;;;;;;27.07;45.86;101880.09;21051068;28;20036;-59
2023/09/20 21:27:40;;;;;;;3.30;3.00;;;;;;;27.08;45.72;101878.97;21057607;28;20560;-60
2023/09/20 21:37:43;;;;;;;3.03;2.72;;;;;;;27.08;45.30;101878.97;21071049;28;20058;-61
2023/09/20 21:47:54;;;;;;;3.75;2.80;;;;;;;26.94;44.97;101853.59;21069499;28;20099;-59
2023/09/20 21:57:56;;;;;;;5.53;3.10;;;;;;;27.08;44.87;101868.59;21016271;28;20065;-65
2023/09/20 22:08:02;;;;;;;5.18;3.40;;;;;;;27.10;44.77;101885.13;21046284;28;20048;-62
2023/09/20 22:18:23;;;;;;;3.90;3.50;;;;;;;27.09;44.54;101889.09;21056100;28;20036;-62
2023/09/20 22:28:30;;;;;;;4.35;3.55;;;;;;;27.09;44.48;101892.72;21050171;28;20037;-63
2023/09/20 22:38:32;;;;;;;;;;;;;;;27.09;44.07;101903.13;21085795;28;20360;-64
2023/09/20 22:48:34;;;;;;;4.88;4.22;;;;;;;27.14;43.67;101903.06;21087942;28;19923;-64
2023/09/20 22:58:35;;;;;;;5.63;5.00;;;;;;;27.10;43.72;101924.47;21076185;28;20398;-64
2023/09/20 23:08:37;;;;;;;5.82;4.82;;;;;;;27.08;44.03;101929.53;21084739;28;20109;-62
2023/09/20 23:18:38;;;;;;;7.97;5.13;;;;;;;27.09;44.32;101931.22;21083691;28;20116;-62
2023/09/20 23:28:42;;;;;;;7.63;5.03;;;;;;;27.07;43.83;101936.25;21087841;28;20035;-62
2023/09/20 23:38:48;;;;;;;6.57;5.30;;;;;;;27.05;43.82;101958.22;21087438;28;20525;-60
2023/09/20 23:48:50;;;;;;;6.90;5.35;;;;;;;27.07;44.00;101958.75;21073479;28;20048;-60
2023/09/20 23:58:54;;;;;;;6.50;4.88;;;;;;;26.90;44.06;101950.81;21065495;28;20044;-58
